Time;durP1;ratioP1;P1;durP2;ratioP2;P2;SDS_P1;SDS_P2;PMS_P1;PMS_P2;Temp;Humidity;BMP_temperature;BMP_pressure;BME280_temperature;BME280_humidity;BME280_pressure;Samples;Min_cycle;Max_cycle;Signal;HPM_P1;HPM_P2
2022/08/10 00:01:46;;;;;;;2.65;2.45;;;16.80;99.90;;;;;;5031947;28;20133;-69
2022/08/10 00:04:12;;;;;;;3.00;2.50;;;16.70;99.90;;;;;;5054143;28;20109;-70
2022/08/10 00:06:38;;;;;;;3.05;2.83;;;16.70;99.90;;;;;;5058931;28;20037;-69
2022/08/10 00:09:04;;;;;;;3.17;2.80;;;16.70;99.90;;;;;;5029341;28;20041;-69
2022/08/10 00:11:29;;;;;;;3.25;2.92;;;16.60;99.90;;;;;;5045102;28;20048;-69
2022/08/10 00:13:55;;;;;;;4.20;2.88;;;16.60;99.90;;;;;;5051010;28;20033;-69
2022/08/10 00:16:21;;;;;;;3.22;2.92;;;16.60;99.90;;;;;;5032922;28;20032;-69
2022/08/10 00:18:46;;;;;;;4.60;3.15;;;16.50;99.90;;;;;;5051776;28;20103;-69
2022/08/10 00:21:12;;;;;;;3.33;3.00;;;16.70;99.90;;;;;;5029817;28;20055;-70
2022/08/10 00:23:38;;;;;;;3.45;2.58;;;16.40;99.90;;;;;;5052695;28;20447;-72
2022/08/10 00:26:04;;;;;;;3.08;2.75;;;16.50;99.90;;;;;;5028111;28;20037;-69
2022/08/10 00:28:31;;;;;;;5.43;3.40;;;16.40;99.90;;;;;;5042477;28;20079;-69
2022/08/10 00:30:58;;;;;;;3.97;3.60;;;16.40;99.90;;;;;;5026982;28;20508;-70
2022/08/10 00:33:23;;;;;;;3.78;3.47;;;16.40;99.90;;;;;;5046321;28;20049;-71
2022/08/10 00:35:49;;;;;;;3.58;3.28;;;16.30;99.90;;;;;;5047118;28;20079;-70
2022/08/10 00:38:15;;;;;;;3.58;3.10;;;16.20;99.90;;;;;;5035011;28;20044;-68
2022/08/10 00:40:41;;;;;;;3.92;3.15;;;16.20;99.90;;;;;;5050168;28;20466;-70
2022/08/10 00:43:07;;;;;;;5.00;3.50;;;16.20;99.90;;;;;;5053339;28;20036;-70
2022/08/10 00:45:34;;;;;;;4.03;3.05;;;16.20;99.90;;;;;;5035856;28;20060;-70
2022/08/10 00:47:59;;;;;;;3.33;2.85;;;16.30;99.90;;;;;;5045833;28;20056;-69
2022/08/10 00:50:26;;;;;;;3.90;3.58;;;16.30;99.90;;;;;;5053375;28;20477;-69
2022/08/10 00:52:51;;;;;;;4.43;3.70;;;16.30;99.90;;;;;;5043105;28;20041;-69
2022/08/10 00:55:18;;;;;;;4.00;3.42;;;16.30;99.90;;;;;;5053832;28;20040;-69
2022/08/10 00:57:45;;;;;;;4.40;4.03;;;16.30;99.90;;;;;;5043751;28;20500;-69
2022/08/10 01:00:11;;;;;;;4.30;4.00;;;16.30;99.90;;;;;;5028451;28;20048;-69
2022/08/10 01:02:39;;;;;;;4.45;4.05;;;16.20;99.90;;;;;;5051090;28;20033;-69
2022/08/10 01:05:08;;;;;;;3.90;3.58;;;16.50;99.90;;;;;;5052269;28;20094;-68
2022/08/10 01:08:01;;;;;;;4.32;3.78;;;16.20;99.90;;;;;;5039616;28;20511;-69
2022/08/10 01:11:01;;;;;;;5.60;4.05;;;16.10;99.90;;;;;;5045494;28;20048;-69
2022/08/10 01:13:55;;;;;;;4.18;3.88;;;16.10;99.90;;;;;;5049125;28;20040;-70
2022/08/10 01:16:40;;;;;;;3.97;3.67;;;16.50;99.90;;;;;;5038431;28;20045;-69
2022/08/10 01:19:30;;;;;;;5.43;4.03;;;16.10;99.90;;;;;;5055877;28;20134;-69
2022/08/10 01:22:14;;;;;;;4.90;4.22;;;16.20;99.90;;;;;;5039578;28;20045;-69
2022/08/10 01:25:03;;;;;;;4.83;4.20;;;16.20;99.90;;;;;;5046229;28;20044;-72
2022/08/10 01:27:56;;;;;;;4.85;4.40;;;16.20;99.90;;;;;;5055009;28;20052;-68
2022/08/10 01:30:24;;;;;;;4.18;3.85;;;16.10;99.90;;;;;;5061393;28;20048;-68
2022/08/10 01:33:08;;;;;;;4.70;4.25;;;16.10;99.90;;;;;;5042812;28;20390;-69
2022/08/10 01:35:45;;;;;;;4.65;4.10;;;16.10;99.90;;;;;;5052313;28;20091;-68
2022/08/10 01:38:30;;;;;;;4.93;4.53;;;16.10;99.90;;;;;;5042200;28;20049;-69
2022/08/10 01:41:20;;;;;;;4.85;4.20;;;16.10;99.90;;;;;;5051096;28;20051;-70
2022/08/10 01:43:55;;;;;;;4.55;4.25;;;16.10;99.90;;;;;;5055219;28;20489;-68
2022/08/10 01:46:24;;;;;;;4.60;4.20;;;16.10;99.90;;;;;;5058352;28;20052;-68
2022/08/10 01:48:53;;;;;;;4.70;3.92;;;16.10;99.90;;;;;;5056927;28;20052;-70
2022/08/10 01:51:31;;;;;;;4.93;4.53;;;16.10;99.90;;;;;;5058461;28;20049;-68
2022/08/10 01:54:01;;;;;;;5.30;4.78;;;16.10;99.90;;;;;;5036490;28;20063;-69
2022/08/10 01:56:30;;;;;;;5.60;5.20;;;16.10;99.90;;;;;;5050530;28;20037;-68
2022/08/10 01:59:02;;;;;;;5.30;4.90;;;16.30;99.90;;;;;;5063210;28;20040;-69
2022/08/10 02:01:37;;;;;;;5.88;4.63;;;16.00;99.90;;;;;;5052910;28;20413;-69
2022/08/10 02:04:06;;;;;;;5.85;5.32;;;16.00;99.90;;;;;;5052810;28;20045;-69
2022/08/10 02:06:48;;;;;;;5.50;5.05;;;16.00;99.90;;;;;;5055746;28;20045;-72
2022/08/10 02:09:22;;;;;;;5.55;5.05;;;15.90;99.90;;;;;;5055229;28;20496;-69
2022/08/10 02:11:50;;;;;;;5.28;4.88;;;15.80;99.90;;;;;;5037548;28;20620;-72
2022/08/10 02:14:17;;;;;;;6.28;5.63;;;15.80;99.90;;;;;;5049040;28;20531;-70
2022/08/10 02:16:46;;;;;;;5.25;4.75;;;15.80;99.90;;;;;;5057166;28;20091;-69
2022/08/10 02:19:17;;;;;;;6.57;5.70;;;15.70;99.90;;;;;;5055985;28;20135;-70
2022/08/10 02:21:45;;;;;;;4.90;4.50;;;15.70;99.90;;;;;;5053796;28;20032;-70
2022/08/10 02:24:13;;;;;;;5.57;4.93;;;15.70;99.90;;;;;;5049272;28;20500;-72
2022/08/10 02:26:43;;;;;;;4.60;4.20;;;15.70;99.90;;;;;;5045058;28;20115;-68
2022/08/10 02:29:12;;;;;;;5.88;5.20;;;15.60;99.90;;;;;;5049309;28;20045;-72
2022/08/10 02:31:40;;;;;;;5.40;5.00;;;15.60;99.90;;;;;;5061358;28;20049;-69
2022/08/10 02:34:09;;;;;;;6.90;5.22;;;15.60;99.90;;;;;;5051152;28;20472;-73
2022/08/10 02:36:37;;;;;;;5.43;4.93;;;15.60;99.90;;;;;;5056944;28;20045;-69
2022/08/10 02:39:06;;;;;;;5.43;5.03;;;15.60;99.90;;;;;;5052218;28;20124;-69
2022/08/10 02:41:39;;;;;;;4.95;4.25;;;15.60;99.90;;;;;;5043203;28;20392;-68
2022/08/10 02:44:10;;;;;;;5.78;5.30;;;15.60;99.90;;;;;;5034971;28;20052;-68
2022/08/10 02:46:46;;;;;;;6.78;6.18;;;15.60;99.90;;;;;;5046263;28;20111;-68
2022/08/10 02:49:21;;;;;;;5.90;5.40;;;15.60;99.90;;;;;;5043116;28;20048;-69
2022/08/10 02:51:58;;;;;;;5.63;5.22;;;15.60;99.90;;;;;;5062084;28;20438;-68
2022/08/10 02:54:30;;;;;;;8.48;6.25;;;15.50;99.90;;;;;;5057842;28;20576;-69
2022/08/10 02:57:04;;;;;;;5.85;5.25;;;15.50;99.90;;;;;;5064192;28;20037;-74
2022/08/10 02:59:40;;;;;;;;;;;15.50;99.90;;;;;;5039670;28;20496;-69
2022/08/10 03:02:13;;;;;;;5.82;5.30;;;15.50;99.90;;;;;;5057539;28;19920;-68
2022/08/10 03:04:45;;;;;;;5.78;5.20;;;15.50;99.90;;;;;;5053942;28;20045;-69
2022/08/10 03:07:15;;;;;;;7.60;5.72;;;15.50;99.90;;;;;;5062186;28;20063;-70
2022/08/10 03:09:42;;;;;;;6.57;5.97;;;15.60;99.90;;;;;;5058920;28;20057;-68
2022/08/10 03:12:11;;;;;;;8.48;6.32;;;15.60;99.90;;;;;;5058330;28;20041;-69
2022/08/10 03:14:37;;;;;;;6.50;5.80;;;15.50;99.90;;;;;;5038152;28;20040;-68
2022/08/10 03:17:04;;;;;;;6.47;5.88;;;15.60;99.90;;;;;;5024538;28;20051;-69
2022/08/10 03:19:32;;;;;;;6.57;5.95;;;15.80;99.90;;;;;;5064921;28;20049;-69
2022/08/10 03:21:59;;;;;;;5.85;5.28;;;15.60;99.90;;;;;;5055125;28;20040;-68
2022/08/10 03:24:26;;;;;;;7.57;6.75;;;15.60;99.90;;;;;;5066266;28;20044;-69
2022/08/10 03:26:53;;;;;;;7.88;6.70;;;15.60;99.90;;;;;;5054433;28;20049;-72
2022/08/10 03:29:20;;;;;;;7.05;6.35;;;15.60;99.90;;;;;;5059914;28;20098;-69
2022/08/10 03:31:47;;;;;;;8.45;6.80;;;15.60;99.90;;;;;;5063511;28;20469;-68
2022/08/10 03:34:15;;;;;;;7.40;6.80;;;15.60;99.90;;;;;;5057696;28;20033;-69
2022/08/10 03:36:41;;;;;;;6.68;6.07;;;15.60;99.90;;;;;;5039594;28;20052;-68
2022/08/10 03:39:07;;;;;;;7.22;6.15;;;15.50;99.90;;;;;;5053768;28;20094;-69
2022/08/10 03:41:40;;;;;;;6.78;6.10;;;15.50;99.90;;;;;;5064667;28;20033;-68
2022/08/10 03:44:07;;;;;;;6.18;5.57;;;15.50;99.90;;;;;;5058758;28;20076;-68
2022/08/10 03:46:36;;;;;;;5.78;5.28;;;15.60;99.90;;;;;;5055768;28;20174;-68
2022/08/10 03:49:03;;;;;;;6.13;5.55;;;15.60;99.90;;;;;;5062279;28;20135;-68
2022/08/10 03:51:30;;;;;;;6.45;5.78;;;15.60;99.90;;;;;;5042646;28;20473;-68
2022/08/10 03:53:57;;;;;;;6.65;6.03;;;15.60;99.90;;;;;;5055937;28;20083;-68
2022/08/10 03:56:23;;;;;;;5.97;5.45;;;15.60;99.90;;;;;;5059896;28;20072;-68
2022/08/10 03:58:49;;;;;;;7.07;6.47;;;16.10;99.90;;;;;;5057093;28;20048;-68
2022/08/10 04:01:16;;;;;;;7.32;6.55;;;15.60;99.90;;;;;;5038657;28;20097;-68
2022/08/10 04:03:42;;;;;;;7.20;6.43;;;15.70;99.90;;;;;;5062880;28;20040;-68
2022/08/10 04:06:09;;;;;;;7.57;6.88;;;15.70;99.90;;;;;;5061137;28;20036;-68
2022/08/10 04:08:39;;;;;;;8.60;7.72;;;15.70;99.90;;;;;;5056279;28;20044;-69
2022/08/10 04:11:05;;;;;;;6.28;5.70;;;15.70;99.90;;;;;;5060974;28;20109;-69
2022/08/10 04:13:30;;;;;;;7.90;6.95;;;15.70;99.90;;;;;;5063757;28;20483;-69
2022/08/10 04:15:56;;;;;;;7.00;6.40;;;15.70;99.90;;;;;;5060638;28;20044;-69
2022/08/10 04:18:22;;;;;;;8.60;6.65;;;15.70;99.90;;;;;;5032973;28;20080;-69
2022/08/10 04:20:51;;;;;;;7.07;6.43;;;15.70;99.90;;;;;;5061465;28;20040;-71
2022/08/10 04:23:21;;;;;;;6.97;6.38;;;15.70;99.90;;;;;;5051858;28;20040;-68
2022/08/10 04:25:48;;;;;;;8.18;6.90;;;15.80;99.90;;;;;;5060976;28;20419;-68
2022/08/10 04:28:14;;;;;;;8.40;7.35;;;15.80;99.90;;;;;;5035857;28;20033;-72
2022/08/10 04:30:42;;;;;;;8.02;7.28;;;15.80;99.90;;;;;;5056298;28;20032;-72
2022/08/10 04:33:09;;;;;;;7.63;6.93;;;15.70;99.90;;;;;;5052943;28;20037;-71
2022/08/10 04:35:36;;;;;;;7.70;7.00;;;15.80;99.90;;;;;;5036840;28;20052;-68
2022/08/10 04:38:03;;;;;;;12.15;7.90;;;15.80;99.90;;;;;;5051893;28;20044;-68
2022/08/10 04:40:29;;;;;;;8.20;7.40;;;15.80;99.90;;;;;;5036404;28;20041;-69
2022/08/10 04:42:56;;;;;;;8.60;7.07;;;15.80;99.90;;;;;;5058509;28;20107;-68
2022/08/10 04:45:21;;;;;;;7.55;6.75;;;15.70;99.90;;;;;;5053648;28;20052;-68
2022/08/10 04:47:47;;;;;;;7.68;6.80;;;15.80;99.90;;;;;;5060156;28;20037;-73
2022/08/10 04:50:12;;;;;;;9.00;7.63;;;15.80;99.90;;;;;;5039584;28;20039;-69
2022/08/10 04:52:38;;;;;;;11.98;7.72;;;15.80;99.90;;;;;;5052128;28;20111;-72
2022/08/10 04:55:04;;;;;;;9.00;7.55;;;16.00;99.90;;;;;;5055530;28;20040;-68
2022/08/10 04:57:30;;;;;;;8.73;7.65;;;15.90;99.90;;;;;;5054000;28;20131;-69
2022/08/10 04:59:55;;;;;;;8.60;6.72;;;15.90;99.90;;;;;;5037510;28;20048;-73
2022/08/10 05:02:21;;;;;;;7.30;6.70;;;15.90;99.90;;;;;;5055408;28;20049;-69
2022/08/10 05:04:46;;;;;;;7.47;6.78;;;15.90;99.90;;;;;;5059008;28;20400;-71
2022/08/10 05:07:14;;;;;;;7.57;6.88;;;15.90;99.90;;;;;;5043717;28;20037;-72
2022/08/10 05:09:41;;;;;;;7.05;6.35;;;16.20;99.90;;;;;;5057449;28;20052;-68
2022/08/10 05:12:07;;;;;;;7.20;6.57;;;16.00;99.90;;;;;;5056530;28;20069;-69
2022/08/10 05:14:33;;;;;;;7.82;7.00;;;16.00;99.90;;;;;;5060574;28;20045;-69
2022/08/10 05:16:59;;;;;;;6.70;5.90;;;16.00;99.90;;;;;;5056210;28;20037;-70
2022/08/10 05:19:25;;;;;;;8.13;6.95;;;16.00;99.90;;;;;;5061571;28;20398;-70
2022/08/10 05:21:51;;;;;;;6.70;6.10;;;16.00;99.90;;;;;;5038775;28;20045;-69
2022/08/10 05:24:17;;;;;;;7.22;6.53;;;16.00;99.90;;;;;;5054436;28;20051;-69
2022/08/10 05:26:42;;;;;;;8.60;5.93;;;16.00;99.90;;;;;;5059228;28;20500;-68
2022/08/10 05:29:08;;;;;;;10.75;7.38;;;16.00;99.90;;;;;;5055658;28;20043;-69
2022/08/10 05:31:34;;;;;;;6.10;5.57;;;16.00;99.90;;;;;;5057179;28;20049;-68
2022/08/10 05:33:59;;;;;;;10.63;7.38;;;16.10;99.90;;;;;;5056490;28;20412;-69
2022/08/10 05:36:26;;;;;;;7.93;6.85;;;16.10;99.90;;;;;;5055433;28;20041;-68
2022/08/10 05:38:52;;;;;;;10.65;7.18;;;16.20;99.90;;;;;;5056949;28;20102;-69
2022/08/10 05:41:18;;;;;;;9.32;6.97;;;16.20;99.90;;;;;;5040750;28;20055;-70
2022/08/10 05:43:44;;;;;;;10.27;6.90;;;16.20;99.90;;;;;;5055587;28;20040;-69
2022/08/10 05:46:10;;;;;;;9.88;7.55;;;16.20;99.90;;;;;;5053777;28;20073;-68
2022/08/10 05:48:38;;;;;;;7.18;6.45;;;16.30;99.90;;;;;;5049935;28;20423;-68
2022/08/10 05:51:03;;;;;;;8.38;6.80;;;16.30;99.90;;;;;;5053994;28;20041;-68
2022/08/10 05:53:31;;;;;;;8.73;6.88;;;16.30;99.90;;;;;;5052123;28;20048;-69
2022/08/10 05:55:57;;;;;;;7.90;7.00;;;16.30;99.90;;;;;;5051205;28;20111;-68
2022/08/10 05:58:24;;;;;;;7.85;6.85;;;16.40;99.90;;;;;;5051420;28;20084;-69
2022/08/10 06:00:54;;;;;;;9.82;7.50;;;16.80;99.90;;;;;;5059391;28;20037;-69
2022/08/10 06:03:28;;;;;;;7.43;6.82;;;16.50;99.90;;;;;;5035727;28;20429;-69
2022/08/10 06:05:55;;;;;;;8.48;7.60;;;16.50;99.90;;;;;;5050972;28;20464;-69
2022/08/10 06:08:27;;;;;;;9.88;7.82;;;16.50;99.90;;;;;;5034658;28;20044;-68
2022/08/10 06:10:55;;;;;;;7.93;6.45;;;16.70;99.90;;;;;;5056694;28;20036;-68
2022/08/10 06:16:11;;;;;;;8.75;7.38;;;16.70;99.90;;;;;;5047715;28;20041;-68
2022/08/10 06:18:37;;;;;;;9.70;6.85;;;16.70;99.90;;;;;;5055022;28;20103;-68
2022/08/10 06:21:04;;;;;;;7.75;6.45;;;16.80;99.90;;;;;;5031010;28;20044;-69
2022/08/10 06:23:31;;;;;;;7.22;6.07;;;16.80;99.90;;;;;;5059750;28;20056;-70
2022/08/10 06:25:57;;;;;;;10.55;6.60;;;17.00;99.90;;;;;;5045215;28;20044;-68
2022/08/10 06:28:24;;;;;;;8.75;6.25;;;17.20;99.90;;;;;;5058739;28;20053;-70
2022/08/10 06:30:52;;;;;;;7.85;5.45;;;17.00;99.90;;;;;;5056020;28;20052;-70
2022/08/10 06:33:21;;;;;;;11.25;5.30;;;17.00;99.90;;;;;;5047636;28;20084;-69
2022/08/10 06:35:51;;;;;;;7.57;5.38;;;17.30;99.90;;;;;;5060763;28;20051;-71
2022/08/10 06:38:20;;;;;;;8.48;5.30;;;17.10;99.90;;;;;;5057929;28;20053;-70
2022/08/10 06:40:47;;;;;;;8.55;4.95;;;17.10;99.90;;;;;;5045208;28;20045;-70
2022/08/10 06:43:16;;;;;;;8.23;4.13;;;17.20;99.90;;;;;;5048402;28;20037;-69
2022/08/10 06:45:46;;;;;;;5.30;3.85;;;17.20;99.90;;;;;;5048308;28;20052;-70
2022/08/10 06:48:20;;;;;;;4.20;3.08;;;17.20;99.90;;;;;;5030156;28;20391;-68
2022/08/10 06:50:53;;;;;;;4.28;3.55;;;17.30;99.90;;;;;;5042434;28;20056;-68
2022/08/10 06:53:22;;;;;;;7.78;3.65;;;17.30;99.90;;;;;;5032129;28;20049;-69
2022/08/10 06:55:58;;;;;;;9.02;3.42;;;17.40;99.90;;;;;;5049605;28;20044;-71
2022/08/10 06:58:31;;;;;;;5.40;3.50;;;17.50;99.90;;;;;;5053302;28;20049;-75
2022/08/10 07:00:57;;;;;;;8.98;3.55;;;17.50;99.90;;;;;;5059252;28;20080;-77
2022/08/10 07:03:30;;;;;;;5.55;3.70;;;17.60;99.90;;;;;;5060453;28;20044;-77
2022/08/10 07:05:58;;;;;;;3.97;3.22;;;17.50;99.90;;;;;;5058860;28;20044;-74
2022/08/10 07:08:25;;;;;;;5.72;3.28;;;17.60;99.90;;;;;;5050159;28;20059;-74
2022/08/10 07:10:53;;;;;;;4.45;3.28;;;17.60;99.90;;;;;;5033149;28;20045;-71
2022/08/10 07:13:19;;;;;;;3.15;2.88;;;17.70;99.90;;;;;;5033628;28;20041;-73
2022/08/10 07:15:48;;;;;;;4.03;2.78;;;17.80;99.90;;;;;;5053317;28;20101;-72
2022/08/10 07:18:16;;;;;;;7.35;3.10;;;17.80;99.90;;;;;;5046938;28;20393;-75
2022/08/10 07:20:44;;;;;;;5.68;2.85;;;17.90;99.90;;;;;;5045850;28;20065;-72
2022/08/10 07:23:12;;;;;;;4.80;2.63;;;17.90;99.90;;;;;;5056407;28;20037;-73
2022/08/10 07:25:40;;;;;;;3.30;2.58;;;18.00;99.90;;;;;;5037122;28;20045;-72
2022/08/10 07:28:07;;;;;;;7.35;2.70;;;18.10;99.90;;;;;;5020757;28;20037;-77
2022/08/10 07:30:37;;;;;;;5.30;2.50;;;18.10;99.90;;;;;;5039128;28;20389;-75
2022/08/10 07:33:04;;;;;;;6.63;2.50;;;18.10;99.90;;;;;;5055048;28;20493;-75
2022/08/10 07:35:33;;;;;;;7.30;2.63;;;18.10;99.90;;;;;;5055351;28;20480;-76
2022/08/10 07:38:01;;;;;;;6.85;2.65;;;18.20;99.90;;;;;;5048083;28;20049;-76
2022/08/10 07:40:28;;;;;;;3.97;2.40;;;18.20;99.90;;;;;;5053601;28;20090;-72
2022/08/10 07:42:57;;;;;;;4.20;2.42;;;18.50;99.90;;;;;;5027695;28;20037;-72
2022/08/10 07:45:27;;;;;;;4.80;2.83;;;18.70;99.90;;;;;;5036774;28;20056;-72
2022/08/10 07:48:14;;;;;;;4.70;2.45;;;18.50;99.90;;;;;;5054402;28;20090;-73
2022/08/10 07:50:42;;;;;;;2.72;1.83;;;18.50;99.90;;;;;;5041216;28;20360;-71
2022/08/10 07:53:11;;;;;;;6.70;2.40;;;18.50;99.90;;;;;;5057486;28;20048;-72
2022/08/10 07:55:41;;;;;;;5.55;2.63;;;18.60;99.90;;;;;;5035774;28;20508;-72
2022/08/10 07:58:07;;;;;;;5.20;2.40;;;18.60;99.90;;;;;;5040542;28;20128;-74
2022/08/10 08:00:34;;;;;;;2.47;2.28;;;18.60;99.90;;;;;;5041420;28;20056;-72
2022/08/10 08:03:02;;;;;;;3.78;2.35;;;18.70;99.90;;;;;;5037020;28;20117;-77
2022/08/10 08:05:29;;;;;;;5.25;2.10;;;18.80;99.90;;;;;;5038696;28;20052;-73
2022/08/10 08:07:57;;;;;;;3.38;2.30;;;18.80;99.90;;;;;;5041164;28;20029;-75
2022/08/10 08:10:28;;;;;;;8.30;2.45;;;18.90;99.90;;;;;;5022628;28;20025;-79
2022/08/10 08:12:56;;;;;;;6.20;2.50;;;19.10;99.90;;;;;;5041843;28;20090;-75
2022/08/10 08:15:23;;;;;;;4.50;1.85;;;19.00;99.90;;;;;;5025425;28;20110;-75
2022/08/10 08:17:51;;;;;;;3.75;2.35;;;19.00;99.90;;;;;;5046256;28;20530;-79
2022/08/10 08:20:18;;;;;;;5.88;2.17;;;19.10;99.90;;;;;;5040307;28;20051;-74
2022/08/10 08:22:45;;;;;;;5.60;2.30;;;19.30;99.90;;;;;;5044869;28;20075;-73
2022/08/10 08:25:12;;;;;;;3.85;1.92;;;19.30;99.90;;;;;;5022843;28;20045;-76
2022/08/10 08:27:39;;;;;;;10.20;2.42;;;19.30;99.90;;;;;;5025059;28;20041;-74
2022/08/10 08:30:09;;;;;;;3.58;1.50;;;19.40;99.90;;;;;;5044679;28;20389;-76
2022/08/10 08:32:40;;;;;;;3.45;1.90;;;19.30;99.90;;;;;;5042889;28;20052;-73
2022/08/10 08:35:08;;;;;;;3.33;1.95;;;19.40;99.90;;;;;;5024873;28;20088;-76
2022/08/10 08:37:39;;;;;;;2.78;1.95;;;19.50;99.90;;;;;;5040111;28;20078;-73
2022/08/10 08:40:09;;;;;;;4.53;2.25;;;19.60;99.90;;;;;;5041996;28;20497;-74
2022/08/10 08:42:52;;;;;;;8.73;2.30;;;19.70;99.90;;;;;;5038603;28;20033;-77
2022/08/10 08:45:24;;;;;;;3.58;2.15;;;19.80;99.90;;;;;;5035755;28;20049;-73
2022/08/10 08:48:18;;;;;;;3.78;1.88;;;20.00;99.90;;;;;;5020115;28;20049;-73
2022/08/10 08:50:55;;;;;;;6.23;2.13;;;19.90;99.90;;;;;;5047009;28;20116;-74
2022/08/10 08:53:29;;;;;;;6.63;2.13;;;19.90;99.90;;;;;;5037886;28;20052;-74
2022/08/10 08:56:13;;;;;;;5.68;2.05;;;20.40;99.90;;;;;;5022771;28;20044;-74
2022/08/10 08:59:09;;;;;;;2.75;2.00;;;20.00;99.90;;;;;;5058345;28;20051;-77
2022/08/10 09:02:08;;;;;;;7.30;2.13;;;20.20;99.90;;;;;;5057082;28;20128;-74
2022/08/10 09:05:00;;;;;;;4.95;2.05;;;20.30;99.90;;;;;;5052968;28;20097;-73
2022/08/10 09:07:42;;;;;;;6.03;2.25;;;20.40;99.90;;;;;;5051359;28;20040;-73
2022/08/10 09:10:51;;;;;;;4.18;1.88;;;20.50;99.90;;;;;;5038342;28;20111;-76
2022/08/10 09:13:25;;;;;;;4.55;1.80;;;20.50;99.90;;;;;;5050094;28;20120;-75
2022/08/10 09:16:04;;;;;;;4.80;1.45;;;20.70;99.90;;;;;;5050251;28;20127;-76
2022/08/10 09:18:46;;;;;;;4.70;2.15;;;20.70;99.90;;;;;;5045191;28;20045;-75
2022/08/10 09:21:45;;;;;;;6.22;1.67;;;20.90;99.90;;;;;;5047394;28;20503;-78
2022/08/10 09:24:44;;;;;;;5.32;1.40;;;20.90;99.90;;;;;;5059690;28;20057;-75
2022/08/10 09:27:41;;;;;;;2.10;1.70;;;21.00;99.90;;;;;;5051387;28;20381;-77
2022/08/10 09:30:10;;;;;;;3.28;1.52;;;21.10;99.90;;;;;;5034304;28;20516;-74
2022/08/10 09:32:45;;;;;;;3.88;1.50;;;21.10;99.90;;;;;;5052834;28;20047;-75
2022/08/10 09:35:22;;;;;;;2.00;1.33;;;21.10;99.90;;;;;;5047628;28;20033;-75
2022/08/10 09:38:01;;;;;;;2.88;1.25;;;21.20;99.90;;;;;;5049745;28;20041;-76
2022/08/10 09:40:37;;;;;;;5.32;1.23;;;21.30;99.90;;;;;;5026333;28;20102;-73
2022/08/10 09:43:29;;;;;;;4.05;1.58;;;21.40;99.90;;;;;;5062715;28;20114;-76
2022/08/10 09:46:23;;;;;;;3.03;1.52;;;21.50;99.90;;;;;;5017930;28;20048;-73
2022/08/10 09:49:01;;;;;;;21.40;2.17;;;21.60;99.90;;;;;;5022575;28;20052;-75
2022/08/10 09:51:47;;;;;;;11.85;2.13;;;21.60;99.90;;;;;;5051852;28;20053;-74
2022/08/10 09:54:25;;;;;;;3.33;1.58;;;21.70;99.90;;;;;;5046959;28;20446;-74
2022/08/10 09:57:23;;;;;;;9.07;2.30;;;21.70;99.90;;;;;;5032688;28;20047;-75
2022/08/10 10:00:00;;;;;;;5.65;1.67;;;21.70;99.90;;;;;;5042515;28;20049;-75
2022/08/10 10:03:05;;;;;;;7.18;1.23;;;21.80;99.90;;;;;;5010300;28;20492;-73
2022/08/10 10:05:59;;;;;;;2.25;0.95;;;21.90;99.90;;;;;;5035732;28;20125;-73
2022/08/10 10:08:33;;;;;;;1.73;1.17;;;21.90;99.90;;;;;;5024585;28;20048;-73
2022/08/10 10:11:01;;;;;;;;;;;21.90;99.90;;;;;;5039581;28;20041;-74
2022/08/10 10:13:43;;;;;;;3.53;1.30;;;22.00;99.90;;;;;;5044913;28;19972;-75
2022/08/10 10:16:22;;;;;;;3.58;1.15;;;22.00;99.90;;;;;;5043194;28;20078;-73
2022/08/10 10:19:11;;;;;;;1.60;0.90;;;22.10;99.90;;;;;;5037282;28;20045;-73
2022/08/10 10:21:49;;;;;;;1.95;1.20;;;22.30;99.90;;;;;;5037553;28;20042;-73
2022/08/10 10:24:34;;;;;;;2.95;1.00;;;22.30;99.90;;;;;;5041712;28;20052;-73
2022/08/10 10:27:14;;;;;;;3.90;0.70;;;22.40;99.90;;;;;;5034689;28;20044;-72
2022/08/10 10:29:53;;;;;;;9.93;1.60;;;22.50;99.90;;;;;;5032525;28;20102;-72
2022/08/10 10:32:51;;;;;;;5.47;1.20;;;22.60;99.90;;;;;;5046097;28;20399;-73
2022/08/10 10:35:42;;;;;;;1.95;0.82;;;22.60;99.90;;;;;;5049348;28;20136;-73
2022/08/10 10:38:10;;;;;;;5.20;1.00;;;22.70;99.90;;;;;;5047936;28;20079;-73
2022/08/10 10:40:42;;;;;;;3.03;0.80;;;22.80;99.90;;;;;;5052632;28;20090;-73
2022/08/10 10:43:33;;;;;;;2.47;0.90;;;22.80;99.90;;;;;;5051340;28;20406;-75
2022/08/10 10:46:08;;;;;;;1.92;1.10;;;23.00;99.90;;;;;;5050250;28;20062;-74
2022/08/10 10:48:40;;;;;;;3.28;0.80;;;23.10;99.90;;;;;;5018761;28;20805;-75
2022/08/10 10:51:26;;;;;;;2.20;0.80;;;23.10;99.90;;;;;;5046577;28;20073;-73
2022/08/10 10:54:04;;;;;;;1.70;0.47;;;23.30;99.90;;;;;;5054399;28;20033;-73
2022/08/10 10:56:57;;;;;;;2.47;0.73;;;23.30;99.90;;;;;;5050299;28;20124;-74
2022/08/10 10:59:53;;;;;;;2.75;0.70;;;23.40;99.90;;;;;;5057519;28;20546;-73
2022/08/10 11:02:50;;;;;;;5.40;1.55;;;23.50;99.90;;;;;;5051296;28;20048;-75
2022/08/10 11:05:34;;;;;;;5.95;1.20;;;23.60;99.90;;;;;;5050499;28;20052;-74
2022/08/10 11:08:12;;;;;;;;;;;23.60;99.90;;;;;;5055501;28;20488;-73
2022/08/10 11:10:45;;;;;;;2.10;0.40;;;23.70;99.90;;;;;;5036056;28;19950;-74
2022/08/10 11:13:43;;;;;;;3.95;0.93;;;23.80;99.90;;;;;;5035463;28;20090;-74
2022/08/10 11:16:59;;;;;;;2.30;1.05;;;24.00;99.90;;;;;;5053139;28;20049;-75
2022/08/10 11:20:03;;;;;;;1.40;0.60;;;24.10;99.90;;;;;;5030903;28;20056;-73
2022/08/10 11:22:34;;;;;;;2.78;0.60;;;24.20;99.90;;;;;;5064893;28;20056;-73
2022/08/10 11:25:27;;;;;;;1.33;0.60;;;24.40;99.90;;;;;;5052991;28;20044;-74
2022/08/10 11:28:08;;;;;;;1.30;0.70;;;24.50;99.90;;;;;;5055514;28;20384;-73
2022/08/10 11:30:53;;;;;;;1.38;0.73;;;24.60;99.90;;;;;;5042479;28;20050;-73
2022/08/10 11:33:44;;;;;;;3.55;0.60;;;24.70;99.90;;;;;;5062514;28;20064;-73
2022/08/10 11:36:24;;;;;;;4.55;1.02;;;24.90;99.90;;;;;;5063341;28;20079;-73
2022/08/10 11:39:21;;;;;;;2.03;0.65;;;25.00;99.90;;;;;;5052019;28;20492;-73
2022/08/10 11:41:53;;;;;;;1.52;0.52;;;25.20;99.90;;;;;;5056060;28;20076;-73
2022/08/10 11:44:34;;;;;;;3.47;0.60;;;25.30;99.90;;;;;;5026040;28;20563;-72
2022/08/10 11:47:08;;;;;;;2.53;0.32;;;25.40;99.90;;;;;;5053132;28;20045;-72
2022/08/10 11:49:52;;;;;;;;;;;25.50;99.90;;;;;;5054839;28;20041;-73
2022/08/10 11:52:49;;;;;;;1.80;0.73;;;25.50;99.90;;;;;;5045504;28;21218;-73
2022/08/10 11:55:23;;;;;;;13.80;1.23;;;25.60;99.90;;;;;;5058435;28;20480;-73
2022/08/10 11:57:53;;;;;;;3.58;0.70;;;25.80;99.90;;;;;;5062828;28;20047;-73
2022/08/10 12:00:20;;;;;;;2.00;0.73;;;25.90;99.90;;;;;;5062641;28;20483;-73
2022/08/10 12:02:56;;;;;;;1.48;0.50;;;26.00;99.90;;;;;;5049382;28;20070;-73
2022/08/10 12:05:26;;;;;;;2.10;0.65;;;26.00;99.60;;;;;;5048319;28;20072;-73
2022/08/10 12:07:54;;;;;;;2.70;0.93;;;26.10;99.80;;;;;;4700186;28;9999765;-73
2022/08/10 12:10:22;;;;;;;3.88;0.60;;;26.20;99.70;;;;;;5050102;28;20041;-73
2022/08/10 12:12:55;;;;;;;5.80;0.57;;;26.30;99.60;;;;;;5047448;28;20082;-73
2022/08/10 12:15:40;;;;;;;4.18;0.47;;;26.40;99.50;;;;;;5049698;28;20037;-73
2022/08/10 12:18:23;;;;;;;2.78;0.60;;;26.50;99.10;;;;;;5044468;28;20047;-73
2022/08/10 12:20:54;;;;;;;0.63;0.33;;;26.60;98.60;;;;;;5029338;28;20049;-72
2022/08/10 12:23:39;;;;;;;2.30;0.47;;;26.80;98.80;;;;;;5046702;28;20067;-73
2022/08/10 12:26:19;;;;;;;4.15;0.70;;;26.70;98.50;;;;;;5026068;28;20041;-72
2022/08/10 12:29:24;;;;;;;2.80;0.85;;;26.80;97.70;;;;;;5046145;28;20224;-72
2022/08/10 12:32:05;;;;;;;2.13;0.80;;;26.90;97.00;;;;;;5044151;28;20082;-73
2022/08/10 12:34:43;;;;;;;5.70;0.85;;;27.00;98.10;;;;;;5048578;28;20089;-73
2022/08/10 12:37:57;;;;;;;0.73;0.43;;;27.10;97.90;;;;;;5047582;28;20033;-73
2022/08/10 12:40:26;;;;;;;2.47;0.80;;;27.20;97.70;;;;;;5022291;28;20059;-72
2022/08/10 12:43:10;;;;;;;1.05;0.50;;;27.30;97.20;;;;;;5047499;28;20041;-72
2022/08/10 12:45:44;;;;;;;;;;;27.40;96.80;;;;;;5047737;28;20041;-72
2022/08/10 12:48:30;;;;;;;1.27;0.55;;;27.40;97.00;;;;;;5047750;28;19931;-73
2022/08/10 12:51:17;;;;;;;1.60;0.30;;;27.50;96.70;;;;;;5055132;28;20044;-73
2022/08/10 12:53:56;;;;;;;3.33;0.80;;;27.60;96.70;;;;;;5054580;28;20037;-73
2022/08/10 12:56:30;;;;;;;3.25;0.95;;;27.70;96.10;;;;;;5044622;28;20040;-72
2022/08/10 12:58:58;;;;;;;5.40;0.70;;;27.80;95.90;;;;;;5055166;28;20041;-73
2022/08/10 13:01:35;;;;;;;0.63;0.60;;;27.90;95.60;;;;;;5052430;28;20052;-74
2022/08/10 13:04:06;;;;;;;11.32;0.90;;;27.90;95.40;;;;;;5050277;28;20058;-74
2022/08/10 13:06:34;;;;;;;10.18;1.15;;;27.90;95.30;;;;;;5041654;28;20037;-72
2022/08/10 13:09:12;;;;;;;4.10;1.00;;;27.60;94.70;;;;;;5041553;28;20053;-73
2022/08/10 13:11:55;;;;;;;57.78;2.53;;;27.50;94.70;;;;;;5048283;28;20052;-73
2022/08/10 13:14:28;;;;;;;5.55;1.10;;;27.30;93.60;;;;;;5038143;28;20041;-74
2022/08/10 13:16:56;;;;;;;4.63;0.77;;;27.30;94.20;;;;;;5053111;28;20033;-74
2022/08/10 13:19:25;;;;;;;1.40;0.68;;;27.20;94.00;;;;;;5050737;28;20041;-73
2022/08/10 13:21:52;;;;;;;3.42;0.77;;;27.30;94.40;;;;;;5047161;28;20361;-74
2022/08/10 13:24:35;;;;;;;1.92;0.65;;;27.20;94.20;;;;;;5047778;28;20028;-77